Time;durP1;ratioP1;P1;durP2;ratioP2;P2;SDS_P1;SDS_P2;PMS_P1;PMS_P2;Temp;Humidity;BMP_temperature;BMP_pressure;BME280_temperature;BME280_humidity;BME280_pressure;Samples;Min_cycle;Max_cycle;Signal;HPM_P1;HPM_P2
2023/06/16 00:02:24;;;;;;;10.40;6.35;;;19.00;59.40;;;;;;5041659;28;20036;-77
2023/06/16 00:04:50;;;;;;;9.90;6.88;;;19.00;59.70;;;;;;5038166;28;20059;-76
2023/06/16 00:07:19;;;;;;;10.15;6.80;;;18.90;59.90;;;;;;5040963;28;20409;-76
2023/06/16 00:09:46;;;;;;;9.55;7.38;;;18.90;60.00;;;;;;5040671;28;20032;-76
2023/06/16 00:12:12;;;;;;;11.82;6.82;;;18.90;60.30;;;;;;5037593;28;20025;-76
2023/06/16 00:14:38;;;;;;;14.85;7.70;;;18.90;60.30;;;;;;5043783;28;20063;-76
2023/06/16 00:17:05;;;;;;;12.57;7.68;;;18.80;60.50;;;;;;5041210;28;20061;-76
2023/06/16 00:19:31;;;;;;;10.65;7.55;;;18.70;60.80;;;;;;5043566;28;20025;-76
2023/06/16 00:22:02;;;;;;;12.40;8.15;;;18.70;60.90;;;;;;5040185;28;20037;-76
2023/06/16 00:24:27;;;;;;;12.95;8.00;;;18.70;61.10;;;;;;5036443;28;20025;-77
2023/06/16 00:26:56;;;;;;;12.50;7.60;;;18.60;61.30;;;;;;5038670;28;20033;-77
2023/06/16 00:29:21;;;;;;;13.82;7.50;;;18.60;61.40;;;;;;5047635;28;20025;-77
2023/06/16 00:31:47;;;;;;;12.73;8.07;;;18.60;61.60;;;;;;5035995;28;20371;-78
2023/06/16 00:34:13;;;;;;;11.15;7.88;;;18.60;61.70;;;;;;5042940;28;20099;-77
2023/06/16 00:36:38;;;;;;;10.30;7.70;;;18.60;61.80;;;;;;5039633;28;20033;-76
2023/06/16 00:39:04;;;;;;;13.00;7.45;;;18.60;61.80;;;;;;5046859;28;20032;-76
2023/06/16 00:41:30;;;;;;;15.02;8.18;;;18.60;62.00;;;;;;5043724;28;20496;-76
2023/06/16 00:43:56;;;;;;;13.85;7.43;;;18.50;62.10;;;;;;5040696;28;20428;-76
2023/06/16 00:46:29;;;;;;;15.77;9.25;;;18.60;62.40;;;;;;5044303;28;20091;-77
2023/06/16 00:48:56;;;;;;;9.88;7.13;;;18.50;62.20;;;;;;5041157;28;20108;-75
2023/06/16 00:51:25;;;;;;;12.77;8.75;;;18.40;62.40;;;;;;5046245;28;20063;-76
2023/06/16 00:53:51;;;;;;;12.73;8.30;;;18.40;62.60;;;;;;5037110;28;20425;-76
2023/06/16 00:56:19;;;;;;;12.93;8.15;;;18.50;62.70;;;;;;5040432;28;20045;-76
2023/06/16 00:58:46;;;;;;;12.10;8.82;;;18.40;62.90;;;;;;5035888;28;20457;-77
2023/06/16 01:01:12;;;;;;;16.13;10.25;;;18.40;63.10;;;;;;5040796;28;20033;-76
2023/06/16 01:03:39;;;;;;;11.02;8.85;;;18.30;63.40;;;;;;5037167;28;20309;-76
2023/06/16 01:06:25;;;;;;;12.57;8.60;;;18.20;63.70;;;;;;5031282;28;20018;-76
2023/06/16 01:09:03;;;;;;;14.38;9.50;;;18.20;64.00;;;;;;5040449;28;20021;-76
2023/06/16 01:11:43;;;;;;;12.18;9.25;;;18.20;64.10;;;;;;5032492;28;20045;-76
2023/06/16 01:14:15;;;;;;;12.68;9.30;;;18.10;64.40;;;;;;5044146;28;20462;-76
2023/06/16 01:16:44;;;;;;;12.45;9.00;;;18.10;64.40;;;;;;5046518;28;20114;-76
2023/06/16 01:19:19;;;;;;;13.85;9.43;;;18.10;64.60;;;;;;5042832;28;20539;-76
2023/06/16 01:22:09;;;;;;;12.63;9.05;;;18.10;64.80;;;;;;5039051;28;20120;-76
2023/06/16 01:24:36;;;;;;;12.60;8.77;;;18.10;64.80;;;;;;5037356;28;20087;-77
2023/06/16 01:27:04;;;;;;;13.45;9.38;;;18.10;65.00;;;;;;5041867;28;20037;-76
2023/06/16 01:29:36;;;;;;;13.35;8.95;;;18.10;65.10;;;;;;5042999;28;20025;-76
2023/06/16 01:32:03;;;;;;;11.63;8.98;;;18.10;65.10;;;;;;5030751;28;20033;-77
2023/06/16 01:34:31;;;;;;;14.10;10.30;;;18.10;65.20;;;;;;5043097;28;20025;-77
2023/06/16 01:36:58;;;;;;;12.73;10.48;;;18.00;65.30;;;;;;5036968;28;20102;-77
2023/06/16 01:39:24;;;;;;;19.23;11.15;;;18.00;65.40;;;;;;5035812;28;20091;-76
2023/06/16 01:41:51;;;;;;;13.55;11.43;;;18.00;65.50;;;;;;5042092;28;20098;-77
2023/06/16 01:44:18;;;;;;;12.35;10.40;;;17.90;65.70;;;;;;5041301;28;20017;-77
2023/06/16 01:46:46;;;;;;;11.40;9.50;;;17.90;65.90;;;;;;5042105;28;20045;-77
2023/06/16 01:49:12;;;;;;;16.95;10.80;;;17.70;66.20;;;;;;5041111;28;20473;-77
2023/06/16 01:51:38;;;;;;;13.50;10.60;;;17.80;66.40;;;;;;5038429;28;20029;-76
2023/06/16 01:54:03;;;;;;;12.82;10.23;;;17.70;66.30;;;;;;5042584;28;20075;-77
2023/06/16 01:56:30;;;;;;;13.98;10.00;;;17.70;66.40;;;;;;5038695;28;20061;-76
2023/06/16 01:58:55;;;;;;;13.95;11.23;;;17.60;66.60;;;;;;5040557;28;20017;-75
2023/06/16 02:01:29;;;;;;;13.73;10.93;;;17.60;66.70;;;;;;5045336;28;20032;-78
2023/06/16 02:04:23;;;;;;;14.75;11.60;;;17.60;66.70;;;;;;5037966;28;20021;-77
2023/06/16 02:07:07;;;;;;;15.23;11.57;;;17.60;66.90;;;;;;5037337;28;20060;-77
2023/06/16 02:09:35;;;;;;;;;;;17.60;67.00;;;;;;5041454;28;20025;-76
2023/06/16 02:12:02;;;;;;;13.20;10.90;;;17.50;67.30;;;;;;5040050;28;20063;-77
2023/06/16 02:14:28;;;;;;;15.15;10.95;;;17.50;67.30;;;;;;5043775;28;20552;-78
2023/06/16 02:16:54;;;;;;;12.82;9.88;;;17.50;67.50;;;;;;5044716;28;20041;-77
2023/06/16 02:19:20;;;;;;;14.57;10.45;;;17.40;67.70;;;;;;5039617;28;20017;-77
2023/06/16 02:21:45;;;;;;;15.05;10.95;;;17.40;67.80;;;;;;5043109;28;20045;-77
2023/06/16 02:24:11;;;;;;;14.52;10.73;;;17.40;67.90;;;;;;5035629;28;20028;-76
2023/06/16 02:26:37;;;;;;;14.20;11.05;;;17.40;67.80;;;;;;5044404;28;20118;-76
2023/06/16 02:29:03;;;;;;;16.13;11.82;;;17.40;68.00;;;;;;5048416;28;20063;-77
2023/06/16 02:31:29;;;;;;;14.35;10.68;;;17.40;68.10;;;;;;5035780;28;20048;-77
2023/06/16 02:33:55;;;;;;;16.38;12.38;;;17.30;68.30;;;;;;5045468;28;20025;-77
2023/06/16 02:36:21;;;;;;;13.15;10.55;;;17.30;68.40;;;;;;5046164;28;20117;-77
2023/06/16 02:38:47;;;;;;;15.02;11.77;;;17.20;68.70;;;;;;5041107;28;20044;-77
2023/06/16 02:41:14;;;;;;;15.93;13.15;;;17.20;69.20;;;;;;5039143;28;20040;-77
2023/06/16 02:43:39;;;;;;;15.32;12.18;;;17.20;69.50;;;;;;5038085;28;20190;-77
2023/06/16 02:46:06;;;;;;;16.13;12.73;;;17.10;69.80;;;;;;5036501;28;20112;-77
2023/06/16 02:48:32;;;;;;;18.05;13.65;;;17.10;70.10;;;;;;5041430;28;20044;-77
2023/06/16 02:50:58;;;;;;;17.60;12.90;;;17.10;70.50;;;;;;5042519;28;20041;-78
2023/06/16 02:53:24;;;;;;;15.93;13.45;;;17.10;70.90;;;;;;5034356;28;20031;-77
2023/06/16 02:55:51;;;;;;;17.52;14.55;;;17.00;71.20;;;;;;5044495;28;20016;-78
2023/06/16 02:58:17;;;;;;;17.55;14.48;;;17.10;71.50;;;;;;5044038;28;20024;-77
2023/06/16 03:00:43;;;;;;;18.00;15.07;;;17.00;71.70;;;;;;5037831;28;20030;-77
2023/06/16 03:03:09;;;;;;;16.05;13.70;;;17.00;71.70;;;;;;5040467;28;20064;-77
2023/06/16 03:05:36;;;;;;;17.42;14.10;;;16.90;71.80;;;;;;5039979;28;20036;-78
2023/06/16 03:08:02;;;;;;;18.13;14.40;;;16.90;71.90;;;;;;5036691;28;20036;-77
2023/06/16 03:10:27;;;;;;;17.13;13.85;;;16.90;72.00;;;;;;5036983;28;20025;-76
2023/06/16 03:12:53;;;;;;;18.02;14.48;;;16.80;72.00;;;;;;5038293;28;20067;-77
2023/06/16 03:15:19;;;;;;;17.30;14.80;;;16.80;72.10;;;;;;5034833;28;20474;-77
2023/06/16 03:17:47;;;;;;;17.70;15.73;;;16.80;72.20;;;;;;5038651;28;20032;-78
2023/06/16 03:20:12;;;;;;;26.95;18.50;;;16.80;72.30;;;;;;5030037;28;20047;-78
2023/06/16 03:22:38;;;;;;;21.23;18.80;;;16.90;72.90;;;;;;5040154;28;20658;-77
2023/06/16 03:25:04;;;;;;;24.73;19.60;;;16.80;73.30;;;;;;5036612;28;20040;-77
2023/06/16 03:27:30;;;;;;;25.25;22.55;;;16.80;74.00;;;;;;5035337;28;20041;-75
2023/06/16 03:29:56;;;;;;;26.48;23.67;;;16.80;74.70;;;;;;5042693;28;20109;-75
2023/06/16 03:32:22;;;;;;;27.98;25.08;;;16.80;75.20;;;;;;5040075;28;20041;-75
2023/06/16 03:34:48;;;;;;;25.63;22.92;;;16.80;75.70;;;;;;5042033;28;20360;-76
2023/06/16 03:37:14;;;;;;;24.83;22.23;;;16.80;75.90;;;;;;5043982;28;20485;-75
2023/06/16 03:39:40;;;;;;;21.83;19.52;;;16.80;75.80;;;;;;5040285;28;20543;-76
2023/06/16 03:42:06;;;;;;;24.15;21.67;;;16.80;75.50;;;;;;5047214;28;20065;-76
2023/06/16 03:44:32;;;;;;;22.98;20.65;;;16.80;75.20;;;;;;5044055;28;20033;-76
2023/06/16 03:46:58;;;;;;;24.40;21.95;;;16.80;75.20;;;;;;5044045;28;20041;-75
2023/06/16 03:49:24;;;;;;;24.92;21.73;;;16.80;75.10;;;;;;5047792;28;20107;-75
2023/06/16 03:51:49;;;;;;;26.35;22.10;;;16.80;75.10;;;;;;5046499;28;20453;-75
2023/06/16 03:54:17;;;;;;;27.17;23.98;;;16.80;75.10;;;;;;5043999;28;20025;-75
2023/06/16 03:56:43;;;;;;;29.77;26.77;;;16.80;75.10;;;;;;5039944;28;20584;-75
2023/06/16 03:59:08;;;;;;;31.05;27.70;;;16.90;75.60;;;;;;5040005;28;20478;-75
2023/06/16 04:01:36;;;;;;;27.85;24.70;;;16.90;76.00;;;;;;5035994;28;20044;-80
2023/06/16 04:04:03;;;;;;;26.63;23.95;;;17.10;77.20;;;;;;5046481;28;20037;-80
2023/06/16 04:06:28;;;;;;;25.92;23.05;;;17.40;76.00;;;;;;5047518;28;20063;-80
2023/06/16 04:08:56;;;;;;;24.95;20.60;;;17.60;74.90;;;;;;5043253;28;20537;-80
2023/06/16 04:11:22;;;;;;;22.17;19.75;;;17.90;74.40;;;;;;5040495;28;20054;-81
2023/06/16 04:13:48;;;;;;;25.15;19.98;;;18.10;73.30;;;;;;5042871;28;20378;-80
2023/06/16 04:16:14;;;;;;;23.48;20.27;;;18.30;73.00;;;;;;5041825;28;20039;-80
2023/06/16 04:18:40;;;;;;;23.85;21.25;;;18.60;72.10;;;;;;5046277;28;20557;-81
2023/06/16 04:21:06;;;;;;;27.38;21.73;;;18.70;71.80;;;;;;5044923;28;20057;-82
2023/06/16 04:23:32;;;;;;;26.25;22.77;;;18.70;72.10;;;;;;5040727;28;20108;-80
2023/06/16 04:25:58;;;;;;;24.65;20.42;;;18.80;71.90;;;;;;5040362;28;20128;-81
2023/06/16 04:28:25;;;;;;;26.10;21.45;;;18.90;71.70;;;;;;5042028;28;20560;-81
2023/06/16 04:30:51;;;;;;;23.52;18.67;;;19.00;71.40;;;;;;5038570;28;20083;-80
2023/06/16 04:33:22;;;;;;;20.77;18.60;;;19.10;71.40;;;;;;5038550;28;20453;-80
2023/06/16 04:35:50;;;;;;;22.60;20.20;;;19.10;71.70;;;;;;5040328;28;20025;-80
2023/06/16 04:38:17;;;;;;;23.05;20.00;;;19.30;70.70;;;;;;5041389;28;20421;-80
2023/06/16 04:40:43;;;;;;;23.17;19.50;;;19.40;70.90;;;;;;5040029;28;20487;-80
2023/06/16 04:43:08;;;;;;;23.35;20.95;;;19.40;70.90;;;;;;5036618;28;20033;-81
2023/06/16 04:45:34;;;;;;;23.20;19.45;;;19.60;70.20;;;;;;5043647;28;20458;-80
2023/06/16 04:48:00;;;;;;;28.30;25.23;;;19.70;70.30;;;;;;5044009;28;20429;-80
2023/06/16 04:50:25;;;;;;;21.10;18.67;;;19.70;70.00;;;;;;5046897;28;20032;-82
2023/06/16 04:52:51;;;;;;;23.95;21.30;;;19.90;70.30;;;;;;5046267;28;20094;-80
2023/06/16 04:55:18;;;;;;;28.80;25.85;;;20.00;69.70;;;;;;5041925;28;20033;-80
2023/06/16 04:57:44;;;;;;;32.38;27.52;;;20.10;69.90;;;;;;5037810;28;20044;-80
2023/06/16 05:00:10;;;;;;;25.15;22.48;;;20.00;70.50;;;;;;5046410;28;20031;-80
2023/06/16 05:02:37;;;;;;;27.85;24.95;;;20.00;70.20;;;;;;5041875;28;20025;-80
2023/06/16 05:05:03;;;;;;;24.23;20.40;;;20.10;69.60;;;;;;5033060;28;20025;-80
2023/06/16 05:07:29;;;;;;;26.00;19.17;;;20.10;70.10;;;;;;5039104;28;20043;-81
2023/06/16 05:09:55;;;;;;;26.45;23.65;;;20.50;69.50;;;;;;5038100;28;20025;-80
2023/06/16 05:12:21;;;;;;;26.83;24.02;;;21.30;66.60;;;;;;5039347;28;20034;-79
2023/06/16 05:14:46;;;;;;;24.45;21.98;;;22.20;64.20;;;;;;5028824;28;20053;-80
2023/06/16 05:17:12;;;;;;;32.60;29.10;;;22.80;63.00;;;;;;5041865;28;20036;-79
2023/06/16 05:19:37;;;;;;;32.50;29.20;;;23.50;60.30;;;;;;5043858;28;20107;-80
2023/06/16 05:22:04;;;;;;;27.52;24.65;;;24.00;58.00;;;;;;5044527;28;20033;-80
2023/06/16 05:24:30;;;;;;;36.90;33.08;;;24.00;59.30;;;;;;5043910;28;20040;-79
2023/06/16 05:26:55;;;;;;;31.58;28.27;;;23.90;59.50;;;;;;5042554;28;20480;-79
2023/06/16 05:29:21;;;;;;;33.67;30.08;;;23.50;60.50;;;;;;5041635;28;20041;-79
2023/06/16 05:31:47;;;;;;;27.85;23.98;;;23.60;60.90;;;;;;5036799;28;20588;-78
2023/06/16 05:34:12;;;;;;;34.13;30.63;;;23.80;60.60;;;;;;5040712;28;20494;-78
2023/06/16 05:36:38;;;;;;;34.65;30.88;;;24.00;59.50;;;;;;5031889;28;20476;-79
2023/06/16 05:39:07;;;;;;;27.33;24.42;;;24.00;58.60;;;;;;5043471;28;20056;-79
2023/06/16 05:41:34;;;;;;;34.35;30.65;;;24.40;58.30;;;;;;5042691;28;20033;-79
2023/06/16 05:44:00;;;;;;;32.67;29.55;;;24.30;58.10;;;;;;5040719;28;20112;-71
2023/06/16 05:46:26;;;;;;;34.97;31.27;;;24.10;59.10;;;;;;5039663;28;20067;-79
2023/06/16 05:48:52;;;;;;;35.28;31.50;;;24.30;58.30;;;;;;5039611;28;20625;-78
2023/06/16 05:51:18;;;;;;;33.50;30.10;;;24.10;59.50;;;;;;5041431;28;20087;-77
2023/06/16 05:53:43;;;;;;;37.50;33.47;;;23.70;60.50;;;;;;5034041;28;20041;-81
2023/06/16 05:56:09;;;;;;;32.70;27.38;;;23.50;60.80;;;;;;5041733;28;20029;-81
2023/06/16 05:58:36;;;;;;;33.88;30.33;;;23.10;62.80;;;;;;5041980;28;20087;-80
2023/06/16 06:01:09;;;;;;;34.30;30.63;;;22.60;64.10;;;;;;5038641;28;20024;-76
2023/06/16 06:03:35;;;;;;;40.10;36.13;;;22.10;66.50;;;;;;5036462;28;20029;-77
2023/06/16 06:06:01;;;;;;;41.38;36.92;;;21.70;67.90;;;;;;5036419;28;20039;-77
2023/06/16 06:08:28;;;;;;;42.22;38.00;;;21.30;69.30;;;;;;5042357;28;20025;-79
2023/06/16 06:11:01;;;;;;;42.88;38.63;;;21.20;69.40;;;;;;5041401;28;20035;-78
2023/06/16 06:13:26;;;;;;;41.90;37.60;;;21.00;70.10;;;;;;5041742;28;20509;-77
2023/06/16 06:15:52;;;;;;;42.60;38.38;;;20.80;71.30;;;;;;5041592;28;20025;-78
2023/06/16 06:18:18;;;;;;;43.03;38.50;;;20.90;71.20;;;;;;5041035;28;20026;-78
2023/06/16 06:20:47;;;;;;;44.45;39.20;;;20.70;71.90;;;;;;5044214;28;20047;-76
2023/06/16 06:23:13;;;;;;;42.28;37.95;;;20.80;72.10;;;;;;5040805;28;20082;-78
2023/06/16 06:25:40;;;;;;;46.65;40.08;;;21.00;72.20;;;;;;5042285;28;20041;-78
2023/06/16 06:28:07;;;;;;;43.88;39.33;;;21.20;71.20;;;;;;5038844;28;20082;-77
2023/06/16 06:30:33;;;;;;;41.70;37.70;;;21.10;71.00;;;;;;5038793;28;20029;-77
2023/06/16 06:32:58;;;;;;;41.45;37.10;;;21.10;71.20;;;;;;5038104;28;20452;-76
2023/06/16 06:35:24;;;;;;;39.42;35.17;;;21.10;71.20;;;;;;5037022;28;20041;-77
2023/06/16 06:37:50;;;;;;;43.95;39.20;;;21.20;70.90;;;;;;5042433;28;20047;-76
2023/06/16 06:40:15;;;;;;;44.03;37.63;;;21.30;71.50;;;;;;5037475;28;20129;-76
2023/06/16 06:42:41;;;;;;;39.50;35.20;;;21.60;70.50;;;;;;5035792;28;20029;-77
2023/06/16 06:45:10;;;;;;;36.03;32.30;;;21.70;69.30;;;;;;5034596;28;20063;-76
2023/06/16 06:47:36;;;;;;;39.50;35.40;;;21.90;69.20;;;;;;5029908;28;20037;-78
2023/06/16 06:50:03;;;;;;;34.75;31.30;;;22.00;67.20;;;;;;5037962;28;20090;-77
2023/06/16 06:52:29;;;;;;;36.70;32.83;;;22.10;68.00;;;;;;5035815;28;20021;-78
2023/06/16 06:54:56;;;;;;;36.15;32.35;;;22.30;67.20;;;;;;5045382;28;20488;-76
2023/06/16 06:57:22;;;;;;;36.38;32.58;;;22.50;65.50;;;;;;5036961;28;20108;-77
2023/06/16 06:59:48;;;;;;;31.75;28.45;;;22.20;66.40;;;;;;5045912;28;20032;-76
2023/06/16 07:02:14;;;;;;;35.15;31.58;;;22.10;66.40;;;;;;5040859;28;20030;-76
2023/06/16 07:04:42;;;;;;;31.52;28.17;;;22.30;65.70;;;;;;5044548;28;20508;-76
2023/06/16 07:07:08;;;;;;;29.77;26.52;;;22.40;64.30;;;;;;5035670;28;20041;-77
2023/06/16 07:09:33;;;;;;;31.73;28.35;;;22.40;63.90;;;;;;5042923;28;20103;-78
2023/06/16 07:11:59;;;;;;;29.67;26.45;;;22.40;64.30;;;;;;5035861;28;20132;-77
2023/06/16 07:14:26;;;;;;;31.95;27.13;;;22.60;62.70;;;;;;5025142;28;20041;-77
2023/06/16 07:16:52;;;;;;;30.48;25.42;;;22.50;61.50;;;;;;5035705;28;20034;-78
2023/06/16 07:19:17;;;;;;;30.08;26.13;;;22.30;62.70;;;;;;5038408;28;20028;-77
2023/06/16 07:21:44;;;;;;;32.83;29.33;;;22.30;61.70;;;;;;5037722;28;20044;-77
2023/06/16 07:24:10;;;;;;;29.75;26.23;;;22.60;62.70;;;;;;5035006;28;20025;-78
2023/06/16 07:26:37;;;;;;;25.52;21.45;;;22.90;62.60;;;;;;5034506;28;20492;-77
2023/06/16 07:29:03;;;;;;;23.60;19.20;;;22.70;57.80;;;;;;5038341;28;20344;-77
2023/06/16 07:31:28;;;;;;;28.20;22.58;;;22.90;57.90;;;;;;5033846;28;20052;-76
2023/06/16 07:33:55;;;;;;;26.33;23.50;;;23.10;59.20;;;;;;5039467;28;20025;-77
2023/06/16 07:36:21;;;;;;;26.30;22.45;;;23.20;59.80;;;;;;5043000;28;20060;-78
2023/06/16 07:38:46;;;;;;;20.55;18.35;;;23.20;60.40;;;;;;5042601;28;20076;-77
2023/06/16 07:41:12;;;;;;;25.60;17.85;;;23.50;55.80;;;;;;5031881;28;20532;-78
2023/06/16 07:43:38;;;;;;;27.73;20.67;;;23.70;56.00;;;;;;5033059;28;20078;-78
2023/06/16 07:46:03;;;;;;;26.00;21.48;;;24.10;56.10;;;;;;5040263;28;20075;-79
2023/06/16 07:48:30;;;;;;;22.35;19.02;;;23.90;55.30;;;;;;5044326;28;20490;-79
2023/06/16 07:50:56;;;;;;;23.10;19.40;;;24.00;55.10;;;;;;5042936;28;20111;-78
2023/06/16 07:53:21;;;;;;;21.42;19.20;;;24.10;55.00;;;;;;5043488;28;20100;-78
2023/06/16 07:55:47;;;;;;;20.83;17.60;;;24.20;54.50;;;;;;5039346;28;20028;-78
2023/06/16 07:58:13;;;;;;;22.13;18.65;;;24.20;55.40;;;;;;5035978;28;20088;-79
2023/06/16 08:00:38;;;;;;;25.38;20.50;;;24.50;54.30;;;;;;5040108;28;20029;-76
2023/06/16 08:03:04;;;;;;;22.98;20.40;;;24.60;54.10;;;;;;5031973;28;20124;-75
2023/06/16 08:05:30;;;;;;;23.65;19.67;;;24.40;53.80;;;;;;5037539;28;20032;-76
2023/06/16 08:07:56;;;;;;;24.25;18.77;;;24.50;53.80;;;;;;5035215;28;20032;-77
2023/06/16 08:10:23;;;;;;;23.92;17.30;;;24.80;53.00;;;;;;5035036;28;20101;-77
2023/06/16 08:12:49;;;;;;;26.48;17.42;;;25.00;53.40;;;;;;5040872;28;20460;-77
2023/06/16 08:15:16;;;;;;;18.88;16.25;;;25.00;52.60;;;;;;5037942;28;20398;-75
2023/06/16 08:17:42;;;;;;;22.10;16.27;;;25.20;52.10;;;;;;5034425;28;20037;-77
2023/06/16 08:20:09;;;;;;;23.52;17.88;;;25.40;51.40;;;;;;5036183;28;20037;-75
2023/06/16 08:22:35;;;;;;;20.40;17.60;;;25.40;50.80;;;;;;5041745;28;20033;-79
2023/06/16 08:25:02;;;;;;;22.52;17.08;;;25.70;50.10;;;;;;5037216;28;20044;-76
2023/06/16 08:27:27;;;;;;;23.23;17.58;;;25.60;50.90;;;;;;5035218;28;20518;-77
2023/06/16 08:29:53;;;;;;;24.17;19.40;;;25.60;51.40;;;;;;5039403;28;20246;-76
2023/06/16 08:32:23;;;;;;;21.70;19.30;;;25.50;51.20;;;;;;5043042;28;20037;-75
2023/06/16 08:34:48;;;;;;;23.05;17.92;;;25.60;50.80;;;;;;5036686;28;20033;-77
2023/06/16 08:37:14;;;;;;;23.17;18.60;;;25.80;51.60;;;;;;5045895;28;20075;-77
2023/06/16 08:39:43;;;;;;;22.25;19.10;;;26.00;50.00;;;;;;5045868;28;20111;-75
2023/06/16 08:42:12;;;;;;;21.33;18.17;;;26.10;50.00;;;;;;5037629;28;20043;-75
2023/06/16 08:44:39;;;;;;;21.30;19.05;;;26.00;49.30;;;;;;5041704;28;20474;-76
2023/06/16 08:47:05;;;;;;;24.25;18.88;;;26.40;49.10;;;;;;5045071;28;20048;-76
2023/06/16 08:49:31;;;;;;;19.85;16.40;;;26.50;49.10;;;;;;5036696;28;20025;-76
2023/06/16 08:52:02;;;;;;;22.58;17.27;;;26.70;47.20;;;;;;5039186;28;20268;-76
2023/06/16 08:54:31;;;;;;;18.98;15.73;;;26.50;46.30;;;;;;5038246;28;20472;-76
2023/06/16 08:57:01;;;;;;;19.67;16.60;;;26.70;45.00;;;;;;5040642;28;20109;-77
2023/06/16 08:59:30;;;;;;;19.73;14.82;;;26.90;45.10;;;;;;5038240;28;20516;-75
2023/06/16 09:01:58;;;;;;;17.45;15.27;;;26.50;46.00;;;;;;5032062;28;20036;-74
2023/06/16 09:04:24;;;;;;;21.00;14.95;;;26.40;46.80;;;;;;5037736;28;20116;-75
2023/06/16 09:06:55;;;;;;;19.67;11.10;;;26.80;46.00;;;;;;5044334;28;20132;-75
2023/06/16 09:09:24;;;;;;;17.45;13.38;;;27.00;44.20;;;;;;5036558;28;20121;-76
2023/06/16 09:12:10;;;;;;;19.00;16.55;;;26.80;44.60;;;;;;5031692;28;20120;-75
2023/06/16 09:14:40;;;;;;;19.30;15.45;;;27.10;45.60;;;;;;5046360;28;20045;-76
2023/06/16 09:17:07;;;;;;;18.98;14.23;;;27.20;45.20;;;;;;5046596;28;20055;-75
2023/06/16 09:19:41;;;;;;;17.42;11.73;;;27.10;43.70;;;;;;5042672;28;20031;-74
2023/06/16 09:22:09;;;;;;;14.60;11.75;;;27.30;43.40;;;;;;5037290;28;20075;-76
2023/06/16 09:24:35;;;;;;;13.90;10.75;;;27.60;42.40;;;;;;5032138;28;20028;-76
2023/06/16 09:27:01;;;;;;;15.23;12.27;;;28.00;41.00;;;;;;5042689;28;20067;-74
2023/06/16 09:29:28;;;;;;;15.70;11.95;;;28.10;40.90;;;;;;5035103;28;20030;-75
2023/06/16 09:32:07;;;;;;;15.60;12.80;;;28.40;42.00;;;;;;5039559;28;20045;-75
2023/06/16 09:34:33;;;;;;;16.48;13.73;;;28.50;41.80;;;;;;5042689;28;20116;-75
2023/06/16 09:36:59;;;;;;;14.10;10.65;;;28.40;41.40;;;;;;5039731;28;20124;-75
2023/06/16 09:39:26;;;;;;;14.18;7.72;;;27.80;39.90;;;;;;5033959;28;20115;-75
2023/06/16 09:41:53;;;;;;;12.20;7.90;;;27.90;39.00;;;;;;5039764;28;20519;-76
2023/06/16 09:44:26;;;;;;;13.32;7.15;;;28.00;37.80;;;;;;5043773;28;20021;-76
2023/06/16 09:46:53;;;;;;;9.65;7.32;;;28.40;38.40;;;;;;5041827;28;20041;-75
2023/06/16 09:49:27;;;;;;;10.93;7.05;;;28.80;36.80;;;;;;5035337;28;20027;-74
2023/06/16 09:51:57;;;;;;;10.90;8.00;;;29.00;36.00;;;;;;5035004;28;20477;-75
2023/06/16 09:54:25;;;;;;;11.63;6.70;;;29.00;34.70;;;;;;5042020;28;20052;-76
2023/06/16 09:56:54;;;;;;;11.20;5.72;;;28.90;34.30;;;;;;5037470;28;20379;-76
2023/06/16 09:59:20;;;;;;;13.07;7.57;;;28.90;34.70;;;;;;5040667;28;20378;-75
2023/06/16 10:01:47;;;;;;;9.85;7.38;;;28.80;35.10;;;;;;5036788;28;20379;-77
2023/06/16 10:04:15;;;;;;;10.88;6.90;;;29.10;35.10;;;;;;5040513;28;20033;-77
2023/06/16 10:07:00;;;;;;;12.00;6.82;;;29.20;34.90;;;;;;5044375;28;20179;-76
2023/06/16 10:09:34;;;;;;;12.23;7.00;;;29.10;34.30;;;;;;5041987;28;20029;-75
2023/06/16 10:12:01;;;;;;;10.05;6.13;;;28.90;33.80;;;;;;5038705;28;20044;-76
2023/06/16 10:14:33;;;;;;;9.27;5.70;;;28.80;33.70;;;;;;5043776;28;20055;-75
2023/06/16 10:17:00;;;;;;;11.88;6.28;;;28.80;33.90;;;;;;5043216;28;20515;-75
2023/06/16 10:19:28;;;;;;;10.25;6.88;;;29.10;33.20;;;;;;5033001;28;20033;-75
2023/06/16 10:21:55;;;;;;;12.15;6.95;;;29.20;32.90;;;;;;5037525;28;20032;-76
2023/06/16 10:24:21;;;;;;;11.80;7.07;;;28.90;34.10;;;;;;5046535;28;20016;-75
2023/06/16 10:26:48;;;;;;;9.93;6.32;;;29.00;33.30;;;;;;5033760;28;20440;-76
2023/06/16 10:29:16;;;;;;;9.32;5.43;;;28.70;34.20;;;;;;5037860;28;20560;-74
2023/06/16 10:31:43;;;;;;;13.20;6.30;;;28.80;35.00;;;;;;5041996;28;20047;-75
2023/06/16 10:34:18;;;;;;;9.98;6.43;;;28.80;34.80;;;;;;5038124;28;20017;-75
2023/06/16 10:36:44;;;;;;;12.82;6.05;;;28.80;34.10;;;;;;5035805;28;20048;-78
2023/06/16 10:39:16;;;;;;;11.65;6.40;;;28.90;35.30;;;;;;5038344;28;20018;-77
2023/06/16 10:41:58;;;;;;;9.10;6.22;;;28.70;34.80;;;;;;5031245;28;20041;-77
2023/06/16 10:44:31;;;;;;;12.05;6.03;;;28.50;34.80;;;;;;5040730;28;20032;-76
2023/06/16 10:47:10;;;;;;;11.82;6.20;;;28.60;34.50;;;;;;5032702;28;20037;-78
2023/06/16 10:49:52;;;;;;;10.05;6.95;;;28.70;34.60;;;;;;5036852;28;20168;-79
2023/06/16 10:52:32;;;;;;;10.43;6.00;;;28.90;33.80;;;;;;5033665;28;20034;-78
2023/06/16 10:55:14;;;;;;;11.48;6.55;;;29.00;33.80;;;;;;5029931;28;20037;-78
2023/06/16 10:57:42;;;;;;;10.38;5.72;;;29.10;33.80;;;;;;5037557;28;20128;-78
2023/06/16 11:00:12;;;;;;;9.48;5.38;;;29.20;33.10;;;;;;5038644;28;20093;-78
2023/06/16 11:02:51;;;;;;;12.32;6.13;;;29.30;33.70;;;;;;5042393;28;20116;-78
2023/06/16 11:05:22;;;;;;;11.90;6.15;;;29.00;33.60;;;;;;5035067;28;20068;-78
2023/06/16 11:08:05;;;;;;;9.65;5.70;;;29.00;33.30;;;;;;5022078;28;20045;-78
2023/06/16 11:11:03;;;;;;;13.10;5.60;;;29.50;33.70;;;;;;5020875;28;20079;-77
2023/06/16 11:13:39;;;;;;;10.57;5.82;;;29.90;32.60;;;;;;5019854;28;20080;-78
2023/06/16 11:16:06;;;;;;;8.73;5.90;;;30.30;32.20;;;;;;5020003;28;20026;-78
2023/06/16 11:18:35;;;;;;;9.80;6.05;;;30.20;32.20;;;;;;5012867;28;20317;-77
2023/06/16 11:21:06;;;;;;;10.88;6.22;;;30.00;33.10;;;;;;5013527;28;20105;-77
2023/06/16 11:23:32;;;;;;;8.27;5.65;;;29.40;32.20;;;;;;5020499;28;20037;-77
2023/06/16 11:26:13;;;;;;;8.43;6.15;;;28.90;33.90;;;;;;5016658;28;20078;-77
2023/06/16 11:28:41;;;;;;;11.52;6.35;;;29.00;34.10;;;;;;5027383;28;20024;-77
2023/06/16 11:31:11;;;;;;;10.73;6.13;;;29.10;33.30;;;;;;5020133;28;20036;-77
2023/06/16 11:33:38;;;;;;;8.43;5.97;;;28.90;33.50;;;;;;5022931;28;20120;-77
2023/06/16 11:36:17;;;;;;;10.50;6.07;;;28.50;34.20;;;;;;5020352;28;20029;-77
2023/06/16 11:38:45;;;;;;;9.52;6.25;;;28.40;34.30;;;;;;5031580;28;20021;-77
2023/06/16 11:41:15;;;;;;;9.55;6.05;;;28.90;34.80;;;;;;5023351;28;20120;-76
2023/06/16 11:43:41;;;;;;;9.88;6.18;;;29.60;32.10;;;;;;5020458;28;20062;-76
2023/06/16 11:46:06;;;;;;;11.00;6.40;;;30.10;32.90;;;;;;5017519;28;20045;-77
2023/06/16 11:48:32;;;;;;;12.50;6.20;;;30.50;31.40;;;;;;5011685;28;20029;-76
2023/06/16 11:50:58;;;;;;;8.98;5.80;;;30.60;31.50;;;;;;5015750;28;20032;-76
2023/06/16 11:53:23;;;;;;;13.00;6.15;;;30.40;31.10;;;;;;5015900;28;20034;-76
2023/06/16 11:55:53;;;;;;;12.05;6.15;;;30.60;31.30;;;;;;5018249;28;20045;-76
2023/06/16 11:58:18;;;;;;;10.63;6.03;;;30.20;31.60;;;;;;5024843;28;20471;-76
2023/06/16 12:00:46;;;;;;;10.05;6.22;;;30.00;31.70;;;;;;5024908;28;20071;-76
2023/06/16 12:03:12;;;;;;;8.80;5.85;;;29.70;32.10;;;;;;5025167;28;20060;-76
2023/06/16 12:05:38;;;;;;;10.48;6.03;;;30.00;32.60;;;;;;5028018;28;20591;-76
2023/06/16 12:08:04;;;;;;;9.98;5.70;;;30.10;31.40;;;;;;5018855;28;20038;-75
2023/06/16 12:10:29;;;;;;;8.52;5.78;;;30.60;31.30;;;;;;5034815;28;20043;-75
2023/06/16 12:12:55;;;;;;;8.68;6.07;;;30.80;31.10;;;;;;5024544;28;20033;-75
2023/06/16 12:15:22;;;;;;;11.57;6.00;;;30.90;30.90;;;;;;5034486;28;20132;-77
2023/06/16 12:17:48;;;;;;;10.23;5.78;;;31.00;30.40;;;;;;5017690;28;20494;-75
2023/06/16 12:20:15;;;;;;;10.95;6.00;;;31.40;31.00;;;;;;5028532;28;20433;-74
2023/06/16 12:22:41;;;;;;;7.78;5.55;;;31.50;30.90;;;;;;5019988;28;20034;-75
2023/06/16 12:25:16;;;;;;;8.35;5.85;;;31.20;31.30;;;;;;5023898;28;20030;-74
2023/06/16 12:27:49;;;;;;;7.85;5.20;;;31.00;30.60;;;;;;5023241;28;20090;-75
2023/06/16 12:30:15;;;;;;;9.38;6.00;;;31.20;31.10;;;;;;5025716;28;20109;-74
2023/06/16 12:32:42;;;;;;;10.63;5.50;;;31.00;31.10;;;;;;5037100;28;20698;-75
2023/06/16 12:35:09;;;;;;;10.15;6.07;;;30.30;32.20;;;;;;5039511;28;20063;-74